Petersburg, KY (41080)

10:26 PM EDT on October 01, 2014 (GMT -0400)
Idlebrook | Change Station
CLOSE
Current Station
Personal Weather Station
Location: Burlington, KY
Elevation: 798 ft
Nearby Weather Stations

Elev 798 ft 39.06 °N, 84.77 °W | Updated 7 seconds ago

Clear
Clear
57.9 °F
Feels Like 57.9 °F
N
0.0
Wind Variable Wind from NNE
Gusts 0.0 mph

Today
High -- | Low -- °F
--% Chance of Precip.
Yesterday
High -- | Low -- °F
Precip. -- in
7:35 AM 7:22 PM
First Quarter, 53% visible
Pressure 29.99 in
Visibility 10.0 miles
Clouds Clear
Dew Point 55 °F
Humidity 89%
Rainfall 0.00 in
Snow Depth Not available.
UV 0 out of 12
Pollen 2.90 out of 12
Air Quality Not available.
Flu Activity Not available.
METAR KCVG 020152Z 09005KT 10SM CLR 18/11 A3001 RMK AO2 SLP156 T01830106

More Conditions Fewer Conditions

Pressure 29.99 in
Visibility 10.0 miles
Clouds Clear
Dew Point 55 °F
Humidity 89%
Rainfall 0.00 in
Snow Depth Not available.
UV 0 out of 12
Pollen 2.90 out of 12
Air Quality Not available.
Flu Activity Not available.
METAR KCVG 020152Z 09005KT 10SM CLR 18/11 A3001 RMK AO2 SLP156 T01830106

More Conditions Fewer Conditions

10-Day Weather Forecast

Almanac

Astronomy

Oct. 01, 2014 Rise Set
Actual Time 7:35 AM EDT 7:22 PM EDT
Civil Twilight 7:08 AM EDT 7:48 PM EDT
Nautical Twilight 6:37 AM EDT 8:19 PM EDT
Astronomical Twilight 6:06 AM EDT 8:50 PM EDT
Moon 2:33 PM EDT (10/1) No Moon Set
Length of Visible Light 12h 39m
Length of Day
11h 46m
Tomorrow will be 2m 31s shorter.
First Quarter, 53% of the Moon is Illuminated
Today
First Quarter
Oct 8
Full
Oct 15
Last Quarter
Oct 23
New
Oct 30
First Quarter

Today's Extremes

State Highs State Lows

Community

WunderPhotos

Upload Photos

1,758,142 photos uploaded!

WunderBlogs® & News

Nearby

Snow Depth

Station Depth Elevation
No new snow has been reported.

Earthquake Activity

City Distance Mag. Time & Date
No recent earthquake activity has been reported nearby.
Minimum magnitude displayed is 2.5.

Coastal Water Temperatures

Place Temperature
No Stations Reporting

Nearby Weather Stations